Silver Lake, Indiana
Current Conditions -  °F | °C
As of 10:35 PM on Friday 28 Nov 2014 (Local Time) from KASW Reporting Station
Clear Clear  
Wind Chill: 24°   Ceiling: Unl
Heat Index: 32°   Visibility: 10mi
Dew Point: 21°   Wind: 10mph
Humidity: 64%   Direction: 160°SSE
Pressure: 29.99"   Gusts: 16mph
Location:  41.07°N, 85.89°W
Report Text: KASW 290335Z AUTO 16009G14KT 127V197 10SM CLR 00/M06 A2999 RMK AO2
Loading
Personal Weather Stations






























Interactive Weather Map New forecast layout! Learn more

10-Day Weather Forecast

Advertisements
Track Severe Weather on mobile